Everett, WA

8:40 AM PDT on September 16, 2014 (GMT -0700)
harborview, everett, wa | Change Station
CLOSE
Current Station
Personal Weather Station
Location: Everett, WA
Elevation: 85 ft
Nearby Weather Stations

Elev 85 ft 47.96 °N, 122.25 °W | Updated 3 minutes ago

Partly Cloudy
Partly Cloudy
59.9 °F
Feels Like 59.9 °F
N
0.0
Wind Variable Wind from North
Gusts 0.0 mph

Today
High -- | Low -- °F
--% Chance of Precip.
Yesterday
High -- | Low -- °F
Precip. -- in
6:47 AM 7:18 PM
Last Quarter, 44% visible
Pressure 29.88 in
Visibility 10.0 miles
Clouds Clear
Dew Point 56 °F
Humidity 88%
Rainfall 0.00 in
Snow Depth 0 in , 1 in , 0 in
UV 1 out of 12
Pollen 1.10 out of 12
PM2.5 Moderate
Flu Activity Not available.
METAR KPAE 161453Z 19007KT 10SM CLR 15/12 A2989 RMK AO2 SLP119 T01500122 55000

More Conditions Fewer Conditions

Pressure 29.88 in
Visibility 10.0 miles
Clouds Clear
Dew Point 56 °F
Humidity 88%
Rainfall 0.00 in
Snow Depth 0 in , 1 in , 0 in
UV 1 out of 12
Pollen 1.10 out of 12
PM2.5 Moderate
Flu Activity Not available.
METAR KPAE 161453Z 19007KT 10SM CLR 15/12 A2989 RMK AO2 SLP119 T01500122 55000

More Conditions Fewer Conditions

10-Day Weather Forecast

Almanac

Astronomy

Sep. 16, 2014 Rise Set
Actual Time 6:47 AM PDT 7:18 PM PDT
Civil Twilight 6:16 AM PDT 7:49 PM PDT
Nautical Twilight 5:39 AM PDT 8:26 PM PDT
Astronomical Twilight 5:00 AM PDT 9:05 PM PDT
Moon No Moon Rise 3:05 PM PDT
Length of Visible Light 13h 33m
Length of Day
12h 31m
Tomorrow will be 3m 27s shorter.
Last Quarter, 44% of the Moon is Illuminated
Today
Last Quarter
Sep 24
New
Oct 1
First Quarter
Oct 8
Full
Oct 15
Last Quarter

Today's Extremes

State Highs State Lows

Community

WunderPhotos

Upload Photos

1,753,810 photos uploaded!

Nearby

Air Quality

  Air Quality AQ Index Pollutant
Yesterday Good
PM2.5
Current Moderate
PM2.5
Tuesday Good
OZONE
Tuesday Good
PM2.5
Wednesday Good
OZONE
Wednesday Good
PM2.5
Thursday Good
OZONE
Thursday Good
PM2.5
Friday Good
OZONE
Friday Good
PM2.5
Saturday Good
OZONE
Saturday Good
PM2.5

Snow Depth

Station Depth Elevation
Meadows Pass 0 in 3500 ft
Quartz Peak 1 in 4700 ft
Touchet 0 in 5530 ft
Olallie Meadows 1 in 3700 ft
Harts Pass 0 in 6500 ft

Earthquake Activity

City Distance Mag. Time & Date
North Bend, Washington 37 miles 2.6 8:21 AM PDT
2014-09-16
Morton, Washington 112 miles 3.0 5:43 AM PDT
2014-09-16
Minimum magnitude displayed is 2.5.

Coastal Water Temperatures

Place Temperature
Port Townsend, WA 53.1 °F
Seattle, WA 55.9 °F
Friday Harbor, WA 53.1 °F
Tacoma, WA 55.9 °F

Nearby Weather Stations